Terminal Aerodrome Forecast
Issued by NWS

Home | Current Version | Previous Version | Text Only | Print | Product List | Glossary Off
Versions: 1 2 3 4 5 6 7 8 9 10 11 12 13 14 15

000
FTUS43 KBIS 031127
TAFJMS
TAF
KJMS 031127Z 0312/0412 35012G20KT P6SM VCSH BKN070 BKN110
     FM031500 33015G25KT P6SM BKN070 BKN130
     FM031800 34017KT P6SM SCT150
     FM040100 35009KT P6SM SKC
     FM040600 12005KT P6SM SKC=

USA.gov is the U.S. government's official web portal to all federal, state and local government web resources and services.